Barahona, Dominican Republic
Current Conditions -  °F | °C
As of 12:00 PM on Friday 31 Oct 2014 (Local Time) from MDST Reporting Station
Few Clouds Few Clouds  
Wind Chill: 86°   Ceiling: Unl
Heat Index: 93°   Visibility: 6mi
Dew Point: 73°   Wind: 8mph
Humidity: 66%   Direction: 130°SE
Pressure: 29.85"   Gusts: NA
Location:  18.21°N, 71.1°W
Report Text: MDST 311600Z 13007KT 9999 FEW024 30/23 Q1011
Loading
Personal Weather Stations






























Interactive Weather Map
Tropical Storm Tracking
New forecast layout! Learn more

10-Day Weather Forecast

Advertisements
Track Severe Weather on mobile